Flight Track Log - Related Links

Times and Time Zones

All times are in EDT time to prevent confusion due to time zone crossing. See the ASQ6187 flight status page for this flight to view local times or setup timezone preferences in your user account.

Time Position Orientation Groundspeed Altitude Reporting Facility
EDT Latitude Longitude Course Direction KTS MPH feet Rate Location/Type
Sun 09:44:05 AM 43.6064 -96.7797 228° Southwest 164 189 3,000  Level Minneapolis Center
Sun 09:45:06 AM 43.6006 -96.8603 264° West 198 228 4,600 2,115 Climbing Minneapolis Center
Sun 09:46:07 AM 43.5631 -96.9464 239° Southwest 244 281 7,300 2,656 Climbing Minneapolis Center
Sun 09:47:08 AM 43.5144 -97.0247 229° Southwest 268 308 10,000 2,049 Climbing Minneapolis Center
Sun 09:48:10 AM 43.4636 -97.1108 231° Southwest 280 322 11,500 1,366 Climbing Minneapolis Center
Sun 09:49:00 AM 43.2591 -97.2864 228° Southwest  Level FlightAware Approximate
Sun 09:49:11 AM 43.4100 -97.2172 235° Southwest 321 369 12,800  Level Minneapolis Center
Sun 09:50:12 AM 43.3550 -97.3281 236° Southwest 344 396 14,200 1,426 Climbing Minneapolis Center
Sun 09:51:13 AM 43.2972 -97.4397 235° Southwest 354 407 15,700 1,561 Climbing Minneapolis Center
Sun 09:52:15 AM 43.2406 -97.5525 235° Southwest 356 410 17,400 1,659 Climbing Minneapolis Center
Sun 09:53:16 AM 43.1733 -97.6836 235° Southwest 356 410 19,100 1,525 Climbing Minneapolis Center
Sun 09:54:17 AM 43.1181 -97.7931 235° Southwest 354 407 20,500 1,366 Climbing Minneapolis Center
Sun 09:55:19 AM 43.0611 -97.9014 234° Southwest 354 407 21,900 1,366 Climbing Minneapolis Center
Sun 09:56:20 AM 43.0044 -98.0111 235° Southwest 353 406 23,300 1,377 Climbing Minneapolis Center
Sun 09:57:21 AM 42.9469 -98.1206 234° Southwest 354 407 24,700 1,366 Climbing Minneapolis Center
Sun 09:58:23 AM 42.8867 -98.2369 235° Southwest 353 406 26,100 1,366 Climbing Minneapolis Center
Sun 09:59:24 AM 42.8303 -98.3467 235° Southwest 353 406 27,500 1,377 Climbing Minneapolis Center
Sun 10:00:25 AM 42.7725 -98.4561 234° Southwest 354 407 28,900 1,366 Climbing Minneapolis Center
Sun 10:01:27 AM 42.7158 -98.5650 235° Southwest 354 407 30,300 1,268 Climbing Minneapolis Center
Sun 10:02:28 AM 42.6581 -98.6717 234° Southwest 353 406 31,500 829 Climbing Minneapolis Center
Sun 10:03:30 AM 42.6011 -98.7811 235° Southwest 353 406 32,000 244 Climbing Minneapolis Center
Sun 10:04:31 AM 42.5367 -98.8992 233° Southwest 381 438 32,000  Level Minneapolis Center
Sun 10:05:32 AM 42.4564 -99.0517 235° Southwest 412 474 32,000  Level Minneapolis Center
Sun 10:06:34 AM 42.3861 -99.1808 234° Southwest 421 484 32,000  Level Minneapolis Center
Sun 10:07:35 AM 42.3167 -99.3100 234° Southwest 422 486 32,000  Level Minneapolis Center
Sun 10:08:37 AM 42.2461 -99.4408 234° Southwest 427 491 32,000  Level Minneapolis Center
Sun 10:09:38 AM 42.1767 -99.5700 234° Southwest 428 493 32,000 390 Level Minneapolis Center
Sun 10:10:40 AM 42.1072 -99.6947 233° Southwest 427 491 32,800 927 Climbing Minneapolis Center
Sun 10:11:41 AM 42.0422 -99.8147 234° Southwest 417 480 33,900 585 Climbing Minneapolis Center
Sun 10:12:43 AM 41.9789 -99.9308 234° Southwest 404 465 34,000 49 Climbing Minneapolis Center
Sun 10:13:44 AM 41.9011 -100.0700 233° Southwest 395 455 34,000  Level Minneapolis Center
Sun 10:14:47 AM 41.8353 -100.1875 233° Southwest 398 458 34,000  Level Denver Center
Sun 10:15:49 AM 41.7714 -100.3044 234° Southwest 404 465 34,000  Level Denver Center
Sun 10:16:51 AM 41.6953 -100.4381 233° Southwest 404 465 34,000  Level Denver Center
Sun 10:17:52 AM 41.6306 -100.5539 233° Southwest 405 466 34,000  Level Denver Center
Sun 10:18:54 AM 41.5533 -100.6883 233° Southwest 406 467 34,000  Level Denver Center
Sun 10:19:56 AM 41.5017 -100.8147 241° Southwest 410 472 34,000  Level Denver Center
Sun 10:20:58 AM 41.4519 -100.9686 247° West 409 471 34,000  Level Denver Center
Sun 10:22:00 AM 41.4094 -101.1006 247° West 408 470 34,000  Level Denver Center
Sun 10:23:02 AM 41.3592 -101.2564 247° West 409 471 34,000  Level Denver Center
Sun 10:24:03 AM 41.3147 -101.3886 246° West 411 473 34,000  Level Denver Center
Sun 10:25:05 AM 41.2642 -101.5450 247° West 412 474 34,000  Level Denver Center
Sun 10:26:07 AM 41.2194 -101.6781 246° West 412 474 34,000  Level Denver Center
Sun 10:27:09 AM 41.1669 -101.8356 246° West 418 481 34,000  Level Denver Center
Sun 10:28:11 AM 41.1214 -101.9700 246° West 418 481 34,000  Level Denver Center
Sun 10:29:13 AM 41.0683 -102.1269 246° West 418 481 34,000  Level Denver Center
Sun 10:30:15 AM 41.0233 -102.2614 246° West 418 481 34,000  Level Denver Center
Sun 10:31:17 AM 40.9711 -102.4186 246° West 418 481 34,000  Level Denver Center
Sun 10:32:19 AM 40.9239 -102.5536 245° Southwest 419 482 34,000  Level Denver Center
Sun 10:33:22 AM 40.8711 -102.7106 246° West 420 483 34,000  Level Denver Center
Sun 10:34:24 AM 40.8236 -102.8472 245° Southwest 423 487 34,000  Level Denver Center
Sun 10:35:26 AM 40.7767 -102.9819 245° Southwest 423 487 34,000 -629 Level Denver Center
Sun 10:36:28 AM 40.7183 -103.1494 245° Southwest 424 488 32,700 -1,694 Descending Denver Center
Sun 10:37:30 AM 40.6672 -103.2961 245° Southwest 437 503 30,500 -2,129 Descending Denver Center
Sun 10:38:32 AM 40.6153 -103.4417 245° Southwest 438 504 28,300 -2,129 Descending Denver Center
Sun 10:39:34 AM 40.5661 -103.5844 246° West 430 495 26,100 -2,081 Descending Denver Center
Sun 10:40:36 AM 40.5189 -103.7158 245° Southwest 407 468 24,000 -2,032 Descending Denver Center
Sun 10:41:38 AM 40.4736 -103.8403 244° Southwest 381 438 21,900 -2,226 Descending Denver Center
Sun 10:42:40 AM 40.3881 -103.9636 228° Southwest 395 455 19,400 -2,081 Descending Denver Center
Sun 10:43:42 AM 40.3167 -104.0619 226° Southwest 376 433 17,600 -1,920 Descending Denver Center
Sun 10:44:45 AM 40.2503 -104.1739 232° Southwest 362 417 15,400 -2,112 Descending Denver Center
Sun 10:45:47 AM 40.2417 -104.2986 265° West 347 399 13,200 -1,935 Descending Denver Center
Sun 10:46:49 AM 40.2331 -104.4247 265° West 322 371 11,400 -1,839 Descending Denver Center
Sun 10:47:51 AM 40.2097 -104.5297 254° West 306 352 9,400 -1,355 Descending Denver Center
Sun 10:48:53 AM 40.1375 -104.5906 213° Southwest 283 326 8,600 -871 Descending Denver Center
Sun 10:49:55 AM 40.0672 -104.6422 209° Southwest 291 335 7,600 -823 Descending Denver Center
Sun 10:50:57 AM 39.9906 -104.6853 203° Southwest 282 325 6,900 -726 Descending Denver Center
Sun 10:51:59 AM 39.9333 -104.6864 181° South 211 243 6,100 -726 Descending Denver Center
Sun 10:53:01 AM 39.8931 -104.6869 181° South 163 188 5,400 -677 Descending Denver Center
Sun 10:55:00 AM 39.8617 -104.6732 180° South  Level Estimated
Sun 11:02:00 AM 39.8617 -104.6732 180° South  Level Estimated
Sun 11:03:00 AM 39.8617 -104.6732 180° South  Level Estimated

Login

Don't have an account? Register now (free) for customized features, flight alerts, and more!